Time;durP1;ratioP1;P1;durP2;ratioP2;P2;SDS_P1;SDS_P2;PMS_P1;PMS_P2;Temp;Humidity;BMP_temperature;BMP_pressure;BME280_temperature;BME280_humidity;BME280_pressure;Samples;Min_cycle;Max_cycle;Signal;HPM_P1;HPM_P2
2021/08/13 00:00:52;;;;;;;7.90;6.43;;;19.30;99.90;;;;;;5048742;28;20025;-46
2021/08/13 00:03:19;;;;;;;9.10;5.90;;;19.30;99.90;;;;;;5048228;28;20037;-46
2021/08/13 00:05:45;;;;;;;8.90;5.82;;;19.30;99.90;;;;;;5047411;28;20470;-46
2021/08/13 00:08:11;;;;;;;9.82;6.05;;;19.30;99.90;;;;;;5048636;28;20119;-49
2021/08/13 00:10:37;;;;;;;7.07;5.95;;;19.30;99.90;;;;;;5048630;28;20124;-45
2021/08/13 00:13:03;;;;;;;8.30;6.53;;;19.30;99.90;;;;;;5046992;28;20207;-45
2021/08/13 00:15:28;;;;;;;8.55;6.20;;;19.30;99.90;;;;;;5047918;28;20087;-46
2021/08/13 00:17:54;;;;;;;9.48;6.80;;;19.40;99.90;;;;;;5048117;28;20078;-46
2021/08/13 00:20:23;;;;;;;8.20;6.45;;;19.40;99.90;;;;;;5048313;28;20455;-46
2021/08/13 00:22:50;;;;;;;7.53;6.65;;;19.50;99.90;;;;;;5048476;28;20109;-46
2021/08/13 00:25:15;;;;;;;11.93;6.75;;;19.50;99.90;;;;;;5048184;28;20394;-46
2021/08/13 00:27:41;;;;;;;8.07;6.38;;;19.50;99.90;;;;;;5048426;28;20021;-48
2021/08/13 00:30:07;;;;;;;9.15;6.70;;;19.50;99.90;;;;;;5048409;28;20033;-45
2021/08/13 00:32:33;;;;;;;8.55;6.47;;;19.60;99.90;;;;;;5048423;28;20024;-47
2021/08/13 00:34:58;;;;;;;8.63;6.10;;;19.60;99.90;;;;;;5047941;28;20033;-45
2021/08/13 00:37:24;;;;;;;7.70;6.53;;;19.60;99.90;;;;;;5048598;28;20175;-46
2021/08/13 00:39:49;;;;;;;7.30;6.30;;;19.60;99.90;;;;;;5048405;28;20036;-46
2021/08/13 00:42:15;;;;;;;10.73;6.75;;;19.50;99.90;;;;;;5048536;28;20388;-47
2021/08/13 00:44:41;;;;;;;10.93;6.90;;;19.50;99.90;;;;;;5047527;28;20037;-46
2021/08/13 00:47:06;;;;;;;7.80;6.20;;;19.60;99.90;;;;;;5046922;28;20033;-46
2021/08/13 00:49:32;;;;;;;8.65;6.65;;;19.60;99.90;;;;;;5048519;28;20024;-46
2021/08/13 00:51:57;;;;;;;10.95;5.90;;;19.60;99.90;;;;;;5048255;28;20040;-46
2021/08/13 00:54:23;;;;;;;7.38;6.22;;;19.60;99.90;;;;;;5046405;28;20033;-46
2021/08/13 00:56:49;;;;;;;7.78;6.60;;;19.50;99.90;;;;;;5048228;28;20040;-46
2021/08/13 00:59:15;;;;;;;8.10;6.43;;;19.50;99.90;;;;;;5047631;28;20025;-46
2021/08/13 01:01:40;;;;;;;10.88;6.60;;;19.50;99.90;;;;;;5048109;28;20037;-46
2021/08/13 01:04:06;;;;;;;8.30;5.90;;;19.40;99.90;;;;;;5047544;28;20041;-46
2021/08/13 01:06:31;;;;;;;12.00;5.97;;;19.40;99.90;;;;;;5048276;28;20025;-46
2021/08/13 01:08:57;;;;;;;11.98;6.82;;;19.40;99.90;;;;;;5048189;28;20039;-46
2021/08/13 01:11:53;;;;;;;8.00;6.18;;;19.40;99.90;;;;;;5046814;28;20089;-46
2021/08/13 01:14:33;;;;;;;11.75;6.30;;;19.40;99.90;;;;;;5047511;28;20124;-47
2021/08/13 01:16:59;;;;;;;;;;;19.40;99.90;;;;;;5048562;28;20033;-46
2021/08/13 01:19:36;;;;;;;8.63;6.68;;;19.40;99.90;;;;;;5047995;28;19974;-46
2021/08/13 01:22:16;;;;;;;9.13;7.00;;;19.30;99.90;;;;;;5048020;28;20056;-46
2021/08/13 01:24:46;;;;;;;9.50;6.65;;;19.30;99.90;;;;;;5047639;28;20025;-47
2021/08/13 01:27:14;;;;;;;;;;;19.30;99.90;;;;;;5048596;28;20035;-47
2021/08/13 01:29:45;;;;;;;9.48;6.40;;;19.30;99.90;;;;;;5048891;28;20347;-46
2021/08/13 01:32:15;;;;;;;8.27;6.32;;;19.30;99.90;;;;;;5056436;28;20279;-47
2021/08/13 01:35:02;;;;;;;8.00;6.75;;;19.30;99.90;;;;;;5059296;28;20024;-46
2021/08/13 01:37:30;;;;;;;7.57;6.35;;;19.30;99.90;;;;;;5061053;28;20111;-45
2021/08/13 01:39:59;;;;;;;10.75;7.30;;;19.30;99.90;;;;;;5060150;28;20028;-45
2021/08/13 01:42:25;;;;;;;10.18;7.07;;;19.30;99.90;;;;;;5061913;28;20438;-45
2021/08/13 01:44:50;;;;;;;8.55;7.07;;;19.30;99.90;;;;;;5060435;28;20028;-45
2021/08/13 01:47:16;;;;;;;10.68;7.35;;;19.30;99.90;;;;;;5060113;28;20092;-45
2021/08/13 01:49:42;;;;;;;9.40;7.20;;;19.30;99.90;;;;;;5060216;28;20032;-45
2021/08/13 01:52:08;;;;;;;9.40;6.82;;;19.30;99.90;;;;;;5061165;28;20021;-45
2021/08/13 01:54:35;;;;;;;8.25;6.95;;;19.40;99.90;;;;;;5060781;28;20155;-45
2021/08/13 01:57:00;;;;;;;9.32;7.20;;;19.30;99.90;;;;;;5059600;28;20497;-45
2021/08/13 01:59:26;;;;;;;10.70;7.00;;;19.30;99.90;;;;;;5061082;28;20032;-45
2021/08/13 02:01:51;;;;;;;16.35;7.40;;;19.30;99.90;;;;;;5060941;28;20114;-44
2021/08/13 02:04:20;;;;;;;10.27;7.28;;;19.30;99.90;;;;;;5059246;28;20029;-45
2021/08/13 02:06:50;;;;;;;10.95;7.20;;;19.20;99.90;;;;;;5059886;28;20398;-48
2021/08/13 02:09:18;;;;;;;9.83;7.10;;;19.20;99.90;;;;;;5059709;28;20378;-48
2021/08/13 02:11:44;;;;;;;9.35;7.55;;;19.20;99.90;;;;;;5059882;28;20009;-46
2021/08/13 02:14:10;;;;;;;11.43;7.85;;;19.20;99.90;;;;;;5059409;28;20044;-47
2021/08/13 02:16:37;;;;;;;7.97;6.72;;;19.10;99.90;;;;;;5061397;28;21128;-46
2021/08/13 02:19:13;;;;;;;8.55;7.28;;;19.10;99.90;;;;;;5055944;28;20025;-45
2021/08/13 02:21:43;;;;;;;8.75;6.97;;;19.00;99.90;;;;;;5050678;28;20029;-46
2021/08/13 02:24:09;;;;;;;10.57;6.83;;;19.00;99.90;;;;;;5049978;28;20052;-46
2021/08/13 02:26:35;;;;;;;12.23;8.10;;;18.90;99.90;;;;;;5050706;28;20823;-47
2021/08/13 02:29:01;;;;;;;10.82;8.02;;;18.80;99.90;;;;;;5050649;28;20028;-46
2021/08/13 02:31:28;;;;;;;11.27;7.30;;;18.90;99.90;;;;;;5050643;28;20021;-46
2021/08/13 02:33:53;;;;;;;11.00;7.70;;;18.80;99.90;;;;;;5050116;28;20387;-46
2021/08/13 02:36:33;;;;;;;9.77;7.57;;;18.80;99.90;;;;;;5050741;28;20021;-46
2021/08/13 02:39:03;;;;;;;10.18;7.88;;;18.70;99.90;;;;;;5049011;28;20071;-46
2021/08/13 02:41:35;;;;;;;8.90;7.27;;;18.70;99.90;;;;;;5049620;28;20422;-48
2021/08/13 02:44:07;;;;;;;10.77;7.57;;;18.70;99.90;;;;;;5049612;28;20603;-47
2021/08/13 02:46:45;;;;;;;8.23;7.20;;;18.60;99.90;;;;;;5050074;28;20471;-49
2021/08/13 02:49:13;;;;;;;10.32;7.43;;;18.50;99.90;;;;;;5048933;28;20491;-46
2021/08/13 02:51:42;;;;;;;8.60;6.55;;;18.50;99.90;;;;;;5050427;28;20031;-46
2021/08/13 02:54:13;;;;;;;12.30;7.32;;;18.40;99.90;;;;;;5049423;28;20032;-46
2021/08/13 02:56:41;;;;;;;8.65;7.13;;;18.30;99.90;;;;;;5050141;28;20028;-46
2021/08/13 02:59:09;;;;;;;9.95;7.97;;;18.30;99.90;;;;;;5050230;28;20039;-46
2021/08/13 03:01:38;;;;;;;11.40;7.70;;;18.30;99.90;;;;;;5050188;28;20498;-46
2021/08/13 03:04:08;;;;;;;10.68;8.48;;;18.30;99.90;;;;;;5049373;28;20029;-46
2021/08/13 03:06:37;;;;;;;10.75;7.50;;;18.30;99.90;;;;;;5049785;28;20059;-45
2021/08/13 03:09:04;;;;;;;12.85;8.32;;;18.20;99.90;;;;;;5048492;28;20052;-45
2021/08/13 03:11:32;;;;;;;13.13;9.30;;;18.10;99.90;;;;;;5049707;28;20021;-46
2021/08/13 03:13:58;;;;;;;12.40;8.60;;;18.10;99.90;;;;;;5048964;28;20135;-46
2021/08/13 03:16:24;;;;;;;19.05;9.50;;;18.20;99.90;;;;;;5049641;28;20029;-45
2021/08/13 03:18:50;;;;;;;11.32;8.00;;;18.10;99.90;;;;;;5049476;28;20103;-47
2021/08/13 03:21:16;;;;;;;9.88;8.00;;;18.10;99.90;;;;;;5058867;28;20382;-46
2021/08/13 03:23:43;;;;;;;10.80;8.52;;;18.10;99.90;;;;;;5059472;28;20093;-45
2021/08/13 03:26:09;;;;;;;13.32;8.60;;;18.10;99.90;;;;;;5058578;28;20078;-46
2021/08/13 03:28:36;;;;;;;13.05;8.80;;;18.10;99.90;;;;;;5058615;28;20072;-46
2021/08/13 03:31:01;;;;;;;11.13;7.97;;;18.00;99.90;;;;;;5060376;28;20040;-46
2021/08/13 03:33:27;;;;;;;10.05;7.88;;;17.90;99.90;;;;;;5057497;28;20033;-45
2021/08/13 03:35:53;;;;;;;11.07;8.00;;;17.80;99.90;;;;;;5058890;28;20028;-46
2021/08/13 03:38:19;;;;;;;8.85;7.55;;;17.70;99.90;;;;;;5059218;28;20024;-46
2021/08/13 03:40:44;;;;;;;9.32;7.60;;;17.70;99.90;;;;;;5059635;28;20029;-46
2021/08/13 03:43:09;;;;;;;10.55;8.23;;;17.60;99.90;;;;;;5056585;28;20029;-45
2021/08/13 03:45:35;;;;;;;10.13;7.65;;;17.50;99.90;;;;;;5059056;28;20642;-46
2021/08/13 03:48:02;;;;;;;13.68;9.90;;;17.50;99.90;;;;;;5058274;28;20031;-48
2021/08/13 03:50:27;;;;;;;16.20;11.18;;;17.50;99.90;;;;;;5059557;28;20029;-48
2021/08/13 03:52:53;;;;;;;15.18;10.45;;;17.50;99.90;;;;;;5057092;28;20051;-46
2021/08/13 03:55:18;;;;;;;15.68;9.38;;;17.50;99.90;;;;;;5057922;28;20390;-47
2021/08/13 03:57:44;;;;;;;11.75;9.45;;;17.50;99.90;;;;;;5058986;28;20067;-45
2021/08/13 04:00:10;;;;;;;10.02;8.57;;;17.40;99.90;;;;;;5057208;28;20429;-46
2021/08/13 04:02:35;;;;;;;12.05;9.00;;;17.50;99.90;;;;;;5058760;28;20020;-45
2021/08/13 04:05:01;;;;;;;13.02;8.95;;;17.50;99.90;;;;;;5058280;28;20086;-46
2021/08/13 04:07:27;;;;;;;13.45;9.57;;;17.40;99.90;;;;;;5057444;28;20033;-46
2021/08/13 04:09:52;;;;;;;11.90;9.15;;;17.40;99.90;;;;;;5057295;28;20112;-46
2021/08/13 04:12:18;;;;;;;13.05;9.20;;;17.40;99.90;;;;;;5058406;28;20078;-45
2021/08/13 04:14:44;;;;;;;12.88;9.88;;;17.40;99.90;;;;;;5056416;28;20028;-45
2021/08/13 04:17:09;;;;;;;15.23;10.30;;;17.40;99.90;;;;;;5059950;28;20028;-45
2021/08/13 04:19:35;;;;;;;14.45;10.07;;;17.40;99.90;;;;;;5057011;28;20032;-45
2021/08/13 04:22:02;;;;;;;13.27;10.10;;;17.40;99.90;;;;;;5058374;28;20501;-45
2021/08/13 04:24:27;;;;;;;13.68;10.18;;;17.40;99.90;;;;;;5055245;28;20105;-45
2021/08/13 04:26:53;;;;;;;14.45;9.60;;;17.40;99.90;;;;;;5058360;28;20055;-45
2021/08/13 04:29:18;;;;;;;29.77;10.68;;;17.40;99.90;;;;;;5056667;28;20013;-45
2021/08/13 04:31:44;;;;;;;13.27;10.02;;;17.40;99.90;;;;;;5048562;28;20033;-46
2021/08/13 04:34:09;;;;;;;12.77;9.27;;;17.40;99.90;;;;;;5055545;28;20029;-46
2021/08/13 04:36:35;;;;;;;13.85;10.27;;;17.40;99.90;;;;;;5058305;28;20033;-45
2021/08/13 04:39:00;;;;;;;12.77;8.73;;;17.50;99.90;;;;;;5057362;28;20031;-46
2021/08/13 04:41:26;;;;;;;12.02;9.05;;;17.50;99.90;;;;;;5058420;28;20183;-45
2021/08/13 04:43:51;;;;;;;13.50;9.73;;;17.50;99.90;;;;;;5054489;28;20028;-45
2021/08/13 04:46:18;;;;;;;11.40;9.52;;;17.50;99.90;;;;;;5056577;28;20107;-45
2021/08/13 04:48:43;;;;;;;11.40;9.27;;;17.60;99.90;;;;;;5058390;28;20021;-49
2021/08/13 04:51:09;;;;;;;12.55;9.30;;;17.60;99.90;;;;;;5055592;28;20485;-46
2021/08/13 04:53:34;;;;;;;11.10;8.63;;;17.60;99.90;;;;;;5056577;28;20478;-47
2021/08/13 04:56:00;;;;;;;11.43;9.32;;;17.60;99.90;;;;;;5055863;28;20029;-47
2021/08/13 04:58:26;;;;;;;11.23;7.97;;;17.60;99.90;;;;;;5056564;28;20028;-46
2021/08/13 05:00:51;;;;;;;15.35;8.70;;;17.70;99.90;;;;;;5057387;28;20107;-46
2021/08/13 05:03:17;;;;;;;11.85;8.77;;;17.60;99.90;;;;;;5054891;28;20335;-45
2021/08/13 05:05:42;;;;;;;11.90;8.15;;;17.60;99.90;;;;;;5061203;28;20028;-46
2021/08/13 05:08:09;;;;;;;11.77;9.52;;;17.60;99.90;;;;;;5059346;28;20044;-46
2021/08/13 05:10:37;;;;;;;12.00;9.25;;;17.70;99.90;;;;;;5059633;28;20567;-47
2021/08/13 05:13:03;;;;;;;12.60;9.15;;;17.70;99.90;;;;;;5060845;28;20061;-46
2021/08/13 05:15:28;;;;;;;12.70;9.60;;;17.70;99.90;;;;;;5058074;28;20033;-46
2021/08/13 05:17:54;;;;;;;12.50;9.30;;;17.80;99.90;;;;;;5059251;28;20101;-46
2021/08/13 05:20:19;;;;;;;13.55;9.75;;;17.80;99.90;;;;;;5060605;28;20124;-46
2021/08/13 05:22:45;;;;;;;13.00;10.43;;;17.90;99.90;;;;;;5059847;28;20082;-48
2021/08/13 05:25:14;;;;;;;13.23;10.23;;;17.90;99.90;;;;;;5060731;28;20079;-46
2021/08/13 05:27:40;;;;;;;14.77;10.38;;;18.00;99.90;;;;;;5059623;28;20059;-46
2021/08/13 05:30:07;;;;;;;14.57;10.05;;;18.10;99.90;;;;;;5059598;28;20386;-47
2021/08/13 05:32:32;;;;;;;15.27;10.88;;;18.20;99.90;;;;;;5059800;28;20095;-46
2021/08/13 05:34:58;;;;;;;12.32;9.82;;;18.30;99.90;;;;;;5061183;28;20029;-48
2021/08/13 05:37:24;;;;;;;15.70;11.30;;;18.40;99.90;;;;;;5059206;28;20024;-46
2021/08/13 05:39:49;;;;;;;15.43;12.23;;;18.60;99.90;;;;;;5061530;28;20036;-45
2021/08/13 05:42:15;;;;;;;13.20;10.82;;;18.70;99.90;;;;;;5059421;28;20143;-47
2021/08/13 05:44:40;;;;;;;12.95;9.63;;;18.90;99.90;;;;;;5063529;28;20074;-46
2021/08/13 05:47:06;;;;;;;12.20;9.77;;;19.00;99.90;;;;;;5060516;28;20028;-46
2021/08/13 05:49:32;;;;;;;15.85;10.60;;;19.10;99.90;;;;;;5059660;28;20474;-45
2021/08/13 05:51:58;;;;;;;13.40;9.88;;;19.10;99.90;;;;;;5058958;28;20021;-45
2021/08/13 05:54:25;;;;;;;12.48;10.07;;;19.20;99.90;;;;;;5060291;28;20028;-45
2021/08/13 05:56:51;;;;;;;11.25;9.65;;;19.20;99.90;;;;;;5059861;28;20031;-45
2021/08/13 05:59:16;;;;;;;11.57;9.77;;;19.20;99.90;;;;;;5060949;28;20024;-45
2021/08/13 06:01:42;;;;;;;19.35;12.57;;;19.20;99.90;;;;;;5059489;28;20096;-45
2021/08/13 06:04:07;;;;;;;13.88;10.75;;;19.30;99.90;;;;;;5057604;28;20525;-45
2021/08/13 06:06:33;;;;;;;19.27;12.55;;;19.40;99.90;;;;;;5055800;28;20119;-44
2021/08/13 06:08:58;;;;;;;15.35;11.68;;;19.40;99.90;;;;;;5050551;28;20029;-45
2021/08/13 06:11:23;;;;;;;15.05;10.80;;;19.50;99.90;;;;;;5050310;28;20107;-45
2021/08/13 06:13:49;;;;;;;14.27;12.30;;;19.50;99.90;;;;;;5050699;28;20560;-45
2021/08/13 06:16:19;;;;;;;17.58;12.43;;;19.60;99.90;;;;;;5049304;28;20063;-45
2021/08/13 06:18:45;;;;;;;13.18;10.93;;;19.70;99.90;;;;;;5049856;28;20032;-46
2021/08/13 06:21:11;;;;;;;13.20;10.77;;;19.70;99.90;;;;;;5056885;28;20070;-45
2021/08/13 06:23:37;;;;;;;15.55;11.23;;;19.70;99.90;;;;;;5053704;28;20274;-45
2021/08/13 06:26:02;;;;;;;18.92;11.93;;;19.90;99.90;;;;;;5049645;28;20376;-46
2021/08/13 06:28:27;;;;;;;17.60;12.20;;;19.90;99.90;;;;;;5049695;28;20036;-45
2021/08/13 06:30:53;;;;;;;17.13;10.65;;;20.00;99.90;;;;;;5049797;28;20029;-45
2021/08/13 06:33:19;;;;;;;18.67;12.60;;;20.00;99.90;;;;;;5049307;28;20398;-45
2021/08/13 06:35:44;;;;;;;15.30;12.15;;;20.20;99.90;;;;;;5049914;28;20017;-48
2021/08/13 06:38:10;;;;;;;13.43;10.75;;;20.20;99.90;;;;;;5049718;28;20021;-47
2021/08/13 06:40:35;;;;;;;18.27;12.15;;;20.30;99.90;;;;;;5049722;28;20185;-45
2021/08/13 06:43:01;;;;;;;15.18;11.38;;;20.40;99.90;;;;;;5049051;28;20052;-47
2021/08/13 06:45:27;;;;;;;14.65;10.80;;;20.40;99.90;;;;;;5048611;28;20119;-41
2021/08/13 06:47:53;;;;;;;14.30;10.80;;;20.50;99.90;;;;;;5049364;28;20017;-42
2021/08/13 06:50:19;;;;;;;16.63;10.80;;;20.60;99.90;;;;;;5049517;28;20032;-41
2021/08/13 06:52:44;;;;;;;17.15;12.75;;;20.70;99.90;;;;;;5048151;28;20021;-42
2021/08/13 06:55:11;;;;;;;17.17;11.55;;;20.80;99.90;;;;;;5048636;28;20025;-42
2021/08/13 06:57:37;;;;;;;15.60;10.98;;;20.90;99.90;;;;;;5049730;28;20029;-41
2021/08/13 07:00:04;;;;;;;15.05;10.80;;;21.00;99.90;;;;;;5049228;28;20392;-41
2021/08/13 07:02:30;;;;;;;17.85;10.27;;;21.10;99.90;;;;;;5054728;28;20028;-41
2021/08/13 07:04:55;;;;;;;15.38;9.80;;;21.20;99.90;;;;;;5056726;28;20032;-41
2021/08/13 07:07:21;;;;;;;11.57;9.20;;;21.30;99.90;;;;;;5057197;28;20502;-42
2021/08/13 07:09:47;;;;;;;17.05;10.40;;;21.30;99.90;;;;;;5057558;28;20021;-42
2021/08/13 07:12:14;;;;;;;14.48;10.02;;;21.40;99.90;;;;;;5057520;28;20462;-41
2021/08/13 07:14:39;;;;;;;16.85;10.48;;;21.50;99.90;;;;;;5057341;28;20052;-42
2021/08/13 07:17:05;;;;;;;14.70;9.57;;;21.70;99.90;;;;;;5058279;28;20064;-41
2021/08/13 07:19:30;;;;;;;16.23;9.18;;;21.70;99.90;;;;;;5058056;28;20027;-42
2021/08/13 07:21:56;;;;;;;13.32;9.95;;;21.90;99.90;;;;;;5059019;28;20043;-42
2021/08/13 07:24:22;;;;;;;12.52;9.30;;;22.00;99.90;;;;;;5055432;28;20555;-42
2021/08/13 07:26:48;;;;;;;12.10;9.32;;;22.10;99.90;;;;;;5058595;28;20111;-42
2021/08/13 07:29:13;;;;;;;15.32;9.35;;;22.30;99.90;;;;;;5057056;28;20112;-41
2021/08/13 07:31:39;;;;;;;12.85;9.57;;;22.30;99.90;;;;;;5059736;28;20103;-41
2021/08/13 07:34:04;;;;;;;12.70;9.25;;;22.40;99.90;;;;;;5058125;28;20070;-42
2021/08/13 07:36:30;;;;;;;15.00;9.90;;;22.60;99.90;;;;;;5059438;28;20060;-42
2021/08/13 07:38:55;;;;;;;14.07;10.25;;;22.70;99.90;;;;;;5053543;28;20490;-41
2021/08/13 07:41:21;;;;;;;11.23;8.35;;;22.80;99.90;;;;;;5055406;28;20034;-41
2021/08/13 07:43:46;;;;;;;15.05;8.82;;;22.90;99.90;;;;;;5058567;28;20461;-42
2021/08/13 07:46:12;;;;;;;10.32;8.38;;;23.00;99.90;;;;;;5060247;28;20017;-42
2021/08/13 07:48:38;;;;;;;15.48;8.63;;;23.10;99.90;;;;;;5064375;28;20104;-41
2021/08/13 07:51:03;;;;;;;11.38;8.32;;;23.30;99.90;;;;;;5068210;28;20035;-41
2021/08/13 07:53:29;;;;;;;10.30;7.55;;;23.50;99.90;;;;;;5068033;28;20085;-42
2021/08/13 07:55:54;;;;;;;14.82;7.85;;;23.80;99.90;;;;;;5068437;28;20024;-42
2021/08/13 07:58:20;;;;;;;12.32;7.50;;;24.00;99.90;;;;;;5057417;28;20056;-42
2021/08/13 08:00:45;;;;;;;11.80;7.95;;;24.20;99.80;;;;;;5064098;28;20066;-43
2021/08/13 08:03:12;;;;;;;16.15;8.98;;;24.40;98.70;;;;;;5067985;28;20024;-45
2021/08/13 08:05:38;;;;;;;12.23;9.05;;;24.60;96.70;;;;;;5057800;28;20475;-43
2021/08/13 08:08:04;;;;;;;11.48;7.75;;;24.70;96.00;;;;;;5058938;28;20032;-41
2021/08/13 08:10:30;;;;;;;12.52;7.63;;;25.00;96.70;;;;;;5056606;28;20037;-42
2021/08/13 08:12:55;;;;;;;12.38;8.23;;;25.30;94.90;;;;;;5058698;28;20236;-42
2021/08/13 08:15:21;;;;;;;13.50;8.13;;;25.50;95.10;;;;;;5055122;28;20062;-42
2021/08/13 08:17:46;;;;;;;14.68;8.13;;;25.80;93.80;;;;;;5055924;28;20371;-43
2021/08/13 08:20:12;;;;;;;13.68;7.53;;;26.30;92.60;;;;;;5056563;28;20506;-42
2021/08/13 08:22:38;;;;;;;8.85;7.30;;;27.00;91.60;;;;;;5058824;28;20070;-42
2021/08/13 08:25:04;;;;;;;8.18;6.88;;;27.70;90.60;;;;;;5058666;28;20017;-43
2021/08/13 08:27:30;;;;;;;10.32;7.68;;;28.80;88.60;;;;;;5062687;28;20207;-43
2021/08/13 08:29:55;;;;;;;15.50;8.52;;;30.10;82.50;;;;;;5056601;28;20078;-44
2021/08/13 08:32:21;;;;;;;12.27;7.55;;;30.60;72.80;;;;;;5051776;28;20024;-43
2021/08/13 08:34:46;;;;;;;12.65;8.15;;;31.80;67.80;;;;;;5062757;28;20024;-44
2021/08/13 08:37:12;;;;;;;9.55;7.00;;;32.80;62.20;;;;;;5063684;28;20102;-44
2021/08/13 08:39:40;;;;;;;9.48;7.00;;;32.60;62.00;;;;;;5067057;28;20043;-44
2021/08/13 08:42:17;;;;;;;8.35;6.90;;;33.20;61.40;;;;;;5059161;28;20021;-46
2021/08/13 08:44:42;;;;;;;8.68;6.28;;;34.30;56.60;;;;;;5055050;28;20119;-43
2021/08/13 08:47:09;;;;;;;10.18;6.95;;;34.50;55.80;;;;;;5057417;28;20072;-43
2021/08/13 08:49:39;;;;;;;8.02;5.72;;;33.90;54.20;;;;;;5046097;28;20443;-44
2021/08/13 08:52:06;;;;;;;13.20;7.13;;;33.70;55.80;;;;;;5061074;28;20032;-44
2021/08/13 08:54:37;;;;;;;7.05;5.78;;;32.10;57.40;;;;;;5054707;28;20428;-43
2021/08/13 08:57:05;;;;;;;7.65;6.85;;;31.50;60.40;;;;;;5055655;28;20024;-43
2021/08/13 08:59:31;;;;;;;10.25;6.30;;;31.40;59.00;;;;;;5055515;28;20082;-43
2021/08/13 09:01:57;;;;;;;8.95;6.75;;;31.50;59.70;;;;;;5052929;28;20566;-43
2021/08/13 09:04:22;;;;;;;8.45;6.88;;;31.60;59.70;;;;;;5055049;28;20055;-43
2021/08/13 09:06:48;;;;;;;11.30;8.60;;;31.60;58.30;;;;;;5055487;28;20360;-44
2021/08/13 09:09:14;;;;;;;10.85;6.88;;;31.50;57.90;;;;;;5056421;28;20020;-43
2021/08/13 09:11:41;;;;;;;7.78;6.43;;;31.60;59.30;;;;;;5054126;28;20076;-44
2021/08/13 09:14:11;;;;;;;11.75;7.57;;;32.00;58.80;;;;;;5049020;28;20051;-43
2021/08/13 09:16:37;;;;;;;9.68;7.45;;;32.50;57.90;;;;;;5066948;28;20169;-43
2021/08/13 09:19:06;;;;;;;11.07;7.45;;;33.30;56.70;;;;;;5060586;28;20041;-45
2021/08/13 09:21:33;;;;;;;11.15;7.10;;;33.50;55.70;;;;;;5067520;28;20231;-44
2021/08/13 09:24:09;;;;;;;7.43;6.43;;;34.70;54.30;;;;;;5065452;28;20054;-43
2021/08/13 09:26:43;;;;;;;10.30;7.13;;;35.80;52.50;;;;;;5067898;28;20048;-44
2021/08/13 09:29:11;;;;;;;11.75;6.68;;;36.40;51.40;;;;;;5067752;28;20034;-44
2021/08/13 09:31:38;;;;;;;10.77;7.15;;;37.00;49.10;;;;;;5067624;28;20036;-43
2021/08/13 09:34:12;;;;;;;6.70;6.00;;;37.10;48.80;;;;;;5065504;28;20060;-43
2021/08/13 09:36:51;;;;;;;6.70;6.07;;;37.30;48.60;;;;;;5067825;28;20527;-44
2021/08/13 09:39:27;;;;;;;11.88;6.35;;;37.90;47.30;;;;;;5067576;28;20039;-43
2021/08/13 09:42:05;;;;;;;7.85;5.97;;;37.20;48.60;;;;;;5066239;28;20112;-44
2021/08/13 09:44:34;;;;;;;9.77;6.10;;;36.80;47.50;;;;;;5067116;28;20516;-45
2021/08/13 09:47:08;;;;;;;8.45;7.00;;;37.00;49.10;;;;;;5067787;28;20039;-46
2021/08/13 09:49:35;;;;;;;14.50;6.00;;;37.10;46.70;;;;;;5060659;28;20057;-49
2021/08/13 09:52:15;;;;;;;6.60;5.70;;;37.70;47.00;;;;;;5048810;28;20298;-45
2021/08/13 09:54:41;;;;;;;6.22;5.35;;;38.40;46.70;;;;;;5049070;28;20514;-46
2021/08/13 09:57:12;;;;;;;9.00;5.70;;;38.40;45.70;;;;;;5056537;28;20418;-44
2021/08/13 09:59:38;;;;;;;8.20;5.57;;;39.20;45.60;;;;;;5059427;28;20197;-44
2021/08/13 10:02:12;;;;;;;7.97;5.25;;;39.20;45.20;;;;;;5055297;28;20033;-43
2021/08/13 10:04:38;;;;;;;5.97;4.80;;;39.70;43.10;;;;;;5048948;28;20260;-44
2021/08/13 10:07:04;;;;;;;7.45;4.70;;;39.40;42.80;;;;;;5050814;28;20017;-44
2021/08/13 10:09:30;;;;;;;8.70;5.55;;;39.20;43.70;;;;;;5050862;28;20104;-43
2021/08/13 10:11:56;;;;;;;5.53;4.75;;;38.20;43.80;;;;;;5051086;28;20290;-46
2021/08/13 10:14:32;;;;;;;6.75;5.00;;;37.40;44.90;;;;;;5067600;28;20029;-44
2021/08/13 10:17:14;;;;;;;10.38;5.43;;;37.20;46.20;;;;;;5068930;28;20035;-43
2021/08/13 10:19:43;;;;;;;7.32;5.45;;;35.90;46.80;;;;;;5059192;28;20099;-43
2021/08/13 10:22:10;;;;;;;8.77;5.45;;;36.20;48.30;;;;;;5060874;28;20214;-43
2021/08/13 10:24:37;;;;;;;6.68;5.03;;;36.40;48.70;;;;;;5050611;28;20029;-44
2021/08/13 10:27:03;;;;;;;10.70;5.03;;;36.70;47.70;;;;;;5050628;28;20562;-44
2021/08/13 10:29:29;;;;;;;7.57;4.75;;;37.20;47.80;;;;;;5063970;28;20063;-44
2021/08/13 10:31:59;;;;;;;6.60;4.85;;;37.60;46.70;;;;;;5068347;28;20406;-43
2021/08/13 10:34:25;;;;;;;7.60;5.28;;;38.30;46.10;;;;;;5055975;28;20056;-44
2021/08/13 10:36:51;;;;;;;8.77;4.90;;;38.40;45.20;;;;;;5059024;28;20033;-44
2021/08/13 10:39:18;;;;;;;5.07;4.32;;;38.70;45.80;;;;;;5059092;28;20468;-44
2021/08/13 10:41:59;;;;;;;5.80;5.20;;;38.70;46.10;;;;;;5057352;28;20217;-45
2021/08/13 10:44:28;;;;;;;5.82;5.25;;;37.60;45.50;;;;;;5065979;28;20199;-44
2021/08/13 10:46:55;;;;;;;5.65;4.72;;;38.20;46.70;;;;;;5058730;28;20063;-44
2021/08/13 10:49:21;;;;;;;6.55;4.80;;;38.30;46.30;;;;;;5050851;28;20112;-43
2021/08/13 10:52:04;;;;;;;7.60;4.63;;;38.20;45.40;;;;;;5057326;28;20183;-43
2021/08/13 10:54:41;;;;;;;7.45;4.63;;;38.10;44.80;;;;;;5061269;28;20020;-46
2021/08/13 10:57:09;;;;;;;5.82;5.03;;;37.60;45.20;;;;;;5068279;28;20482;-45
2021/08/13 10:59:41;;;;;;;5.47;4.90;;;37.10;47.70;;;;;;5068257;28;20024;-43
2021/08/13 11:02:15;;;;;;;5.80;5.20;;;37.20;47.50;;;;;;5067723;28;20020;-44
2021/08/13 11:04:45;;;;;;;6.90;5.10;;;37.10;48.40;;;;;;5067380;28;20477;-43
2021/08/13 11:07:10;;;;;;;8.02;5.22;;;36.80;46.50;;;;;;5068486;28;20060;-43
2021/08/13 11:09:38;;;;;;;6.38;5.13;;;36.90;45.50;;;;;;5069722;28;20055;-43
2021/08/13 11:12:10;;;;;;;5.60;5.00;;;36.90;46.80;;;;;;5069815;28;20047;-43
2021/08/13 11:14:54;;;;;;;5.68;4.95;;;36.50;47.60;;;;;;5068893;28;20056;-43
2021/08/13 11:17:33;;;;;;;6.70;5.72;;;37.00;46.80;;;;;;5069625;28;20538;-44
2021/08/13 11:20:00;;;;;;;8.13;5.37;;;36.10;46.30;;;;;;5069594;28;20258;-42
2021/08/13 11:22:32;;;;;;;5.93;5.30;;;35.30;49.60;;;;;;5069902;28;20071;-43
2021/08/13 11:24:58;;;;;;;6.63;5.18;;;35.60;49.00;;;;;;5068949;28;20021;-43
2021/08/13 11:27:24;;;;;;;9.65;5.55;;;36.10;48.80;;;;;;5069490;28;20028;-43
2021/08/13 11:29:50;;;;;;;8.20;5.75;;;36.30;47.00;;;;;;5069428;28;20033;-43
2021/08/13 11:32:17;;;;;;;6.18;5.57;;;36.40;47.10;;;;;;5069376;28;20021;-43
2021/08/13 11:34:50;;;;;;;7.32;5.03;;;36.60;47.50;;;;;;5068600;28;20017;-44
2021/08/13 11:37:30;;;;;;;8.05;5.28;;;36.70;47.80;;;;;;5067840;28;20067;-44
2021/08/13 11:39:56;;;;;;;7.78;5.28;;;37.30;47.60;;;;;;5069453;28;20103;-47
2021/08/13 11:42:23;;;;;;;6.10;5.15;;;36.70;47.10;;;;;;5067799;28;20028;-48
2021/08/13 11:44:50;;;;;;;5.93;5.35;;;36.70;47.20;;;;;;5067080;28;20028;-47
2021/08/13 11:47:19;;;;;;;6.68;5.28;;;36.00;46.70;;;;;;5068977;28;20114;-48
2021/08/13 11:49:46;;;;;;;6.10;5.20;;;35.70;48.20;;;;;;5069251;28;20052;-47
2021/08/13 11:52:16;;;;;;;7.85;5.75;;;35.20;49.60;;;;;;5067550;28;20266;-48
2021/08/13 11:54:41;;;;;;;8.23;5.65;;;35.20;48.40;;;;;;5068401;28;20029;-49
2021/08/13 11:57:15;;;;;;;5.97;5.40;;;35.10;49.70;;;;;;5067479;28;20108;-51
2021/08/13 11:59:41;;;;;;;7.28;5.25;;;35.50;49.10;;;;;;5068714;28;20024;-51
2021/08/13 12:02:07;;;;;;;8.10;6.28;;;35.90;49.70;;;;;;5068987;28;20068;-49
2021/08/13 12:04:33;;;;;;;6.70;5.55;;;36.80;48.30;;;;;;5068439;28;20032;-48
2021/08/13 12:07:08;;;;;;;8.75;5.70;;;37.00;47.00;;;;;;5069021;28;20367;-48
2021/08/13 12:09:40;;;;;;;6.60;5.70;;;36.50;48.70;;;;;;5067569;28;20482;-50
2021/08/13 12:12:11;;;;;;;8.00;5.78;;;36.30;47.60;;;;;;5068647;28;20569;-48
2021/08/13 12:14:38;;;;;;;6.97;6.20;;;34.60;48.60;;;;;;5067257;28;20043;-47
2021/08/13 12:17:04;;;;;;;9.18;6.20;;;33.90;51.00;;;;;;5068679;28;20024;-49
2021/08/13 12:19:30;;;;;;;7.05;5.43;;;33.90;51.40;;;;;;5068604;28;20033;-47
2021/08/13 12:22:02;;;;;;;10.48;5.88;;;33.90;52.40;;;;;;5068562;28;20029;-49
2021/08/13 12:24:33;;;;;;;7.90;6.05;;;33.90;51.20;;;;;;5068076;28;20028;-50
2021/08/13 12:27:01;;;;;;;7.88;5.63;;;33.40;52.00;;;;;;5067157;28;20386;-49
2021/08/13 12:29:30;;;;;;;7.28;5.82;;;33.70;51.90;;;;;;5068408;28;20482;-48
2021/08/13 12:31:57;;;;;;;8.55;5.85;;;33.60;53.20;;;;;;5067234;28;20047;-47
2021/08/13 12:34:29;;;;;;;9.88;5.97;;;33.40;52.80;;;;;;5067758;28;20098;-48
2021/08/13 12:37:12;;;;;;;10.98;5.30;;;33.10;52.20;;;;;;5068804;28;20108;-48
2021/08/13 12:39:43;;;;;;;7.93;6.00;;;33.50;52.40;;;;;;5068347;28;20509;-49
2021/08/13 12:42:10;;;;;;;7.10;6.13;;;33.60;53.40;;;;;;5068737;28;20020;-48